Pagina principale
METAR-TAF:

METAR-TAF

Aeroporti :

Vannes, Francia

latitudine: 47-43-19N, longitudine: 2-43-41W, altezza: 130 m

Osservazione

Il bollettino è stato emesso 16 minuti fa, alle 03:00 UTC
Vento 9 kt da ovest/sud-ovest, variando fra sud/sud-ovest e ovest
Temperature 10°C
Umidità 100%
Pressione 1026 hPa
Visibilità: 9000 m
Cielo coperto ad un'altezza di 300 ft

METAR: LFRV 240300Z AUTO 24009KT 200V280 9000 OVC003 10/10 Q1026

Ora: 04:16 (03:16 UTC)


TAF: mancante

Osservazioni e previsioni meteorologiche di più di 4000 aeroporti (messaggi METAR e TAF).

Le stazioni disponibili sono rappresentate dai dischi gialli e rossi sulla carta.

Puntare il mouse per vedere il nome della stazione.

Clicca sopra per visualizzare le osservazioni e previsioni meteorologiche.

Per cambiare la mappa : fare clic sui pulsanti verdi con una croce nera per ingrandire, il pulsante verde con un trattino per diminuire, o sulla freccia verde per le mappe adiacenti.


METAR-TAF: